createdAt,value
2022-11-25T00:01:16.107Z,3
2022-11-25T00:07:05.535Z,4
2022-11-25T00:12:15.772Z,3
2022-11-25T00:18:05.557Z,3
2022-11-25T00:23:06.215Z,3
2022-11-25T00:28:15.790Z,3
2022-11-25T00:34:05.512Z,4
2022-11-25T00:39:15.786Z,3
2022-11-25T00:44:15.801Z,3
2022-11-25T00:49:15.842Z,3
2022-11-25T00:55:05.461Z,4
2022-11-25T01:00:05.491Z,3
2022-11-25T01:05:05.525Z,4
2022-11-25T01:10:15.820Z,4
2022-11-25T01:15:15.834Z,3
2022-11-25T01:20:15.865Z,4
2022-11-25T01:25:15.993Z,3
2022-11-25T01:31:05.714Z,4
2022-11-25T01:36:16.039Z,3
2022-11-25T01:42:05.699Z,4
2022-11-25T01:47:05.736Z,3
2022-11-25T01:52:15.973Z,4
2022-11-25T01:58:05.489Z,3
2022-11-25T02:03:05.657Z,4
2022-11-25T02:08:15.984Z,4
2022-11-25T02:13:15.978Z,3
2022-11-25T02:19:05.711Z,3
2022-11-25T02:24:15.866Z,3
2022-11-25T02:30:05.634Z,4
2022-11-25T02:35:05.716Z,3
2022-11-25T02:40:15.822Z,3
2022-11-25T02:45:16.009Z,4
2022-11-25T02:51:05.453Z,4
2022-11-25T02:56:05.771Z,4
2022-11-25T03:01:15.857Z,4
2022-11-25T03:06:15.775Z,3
2022-11-25T03:11:16.005Z,3
2022-11-25T03:16:16.105Z,3
2022-11-25T03:22:05.685Z,4
2022-11-25T03:27:05.784Z,3
2022-11-25T03:32:16.018Z,2
2022-11-25T03:38:05.428Z,3
2022-11-25T03:43:05.444Z,3
2022-11-25T03:48:05.492Z,2
2022-11-25T03:53:05.678Z,3
2022-11-25T03:58:05.705Z,3
2022-11-25T04:03:16.013Z,2
2022-11-25T04:09:05.670Z,3
2022-11-25T04:14:05.659Z,3
2022-11-25T04:19:05.730Z,3
2022-11-25T04:24:15.810Z,3
2022-11-25T04:29:15.960Z,2
2022-11-25T04:34:16.007Z,3
2022-11-25T04:40:05.701Z,3
2022-11-25T04:45:24.205Z,3
2022-11-25T04:51:05.765Z,2
2022-11-25T04:56:15.991Z,3
2022-11-25T05:02:05.478Z,2
2022-11-25T05:07:05.702Z,3
2022-11-25T05:12:15.740Z,3
2022-11-25T05:17:15.802Z,3
2022-11-25T05:22:15.914Z,4
2022-11-25T05:27:15.987Z,3
2022-11-25T05:33:05.656Z,3
2022-11-25T05:38:05.738Z,3
2022-11-25T05:43:15.988Z,4
2022-11-25T05:49:05.691Z,3
2022-11-25T05:54:16.102Z,3
2022-11-25T06:00:05.474Z,3
2022-11-25T06:05:15.980Z,3
2022-11-25T06:10:16.142Z,4
2022-11-25T06:16:07.818Z,3
2022-11-25T06:21:15.773Z,3
2022-11-25T06:27:05.542Z,3
2022-11-25T06:32:15.746Z,3
2022-11-25T06:37:15.765Z,4
2022-11-25T06:42:15.799Z,3
2022-11-25T06:48:05.597Z,4
2022-11-25T06:53:19.887Z,3
2022-11-25T06:59:05.508Z,3
2022-11-25T07:04:05.483Z,4
2022-11-25T07:09:15.779Z,4
2022-11-25T07:15:05.583Z,3
2022-11-25T07:20:15.754Z,3
2022-11-25T07:25:15.774Z,6
2022-11-25T07:35:15.898Z,4
2022-11-25T07:40:15.963Z,4
2022-11-25T07:46:05.918Z,4
2022-11-25T07:51:16.065Z,4
2022-11-25T07:57:07.371Z,4
2022-11-25T08:02:16.140Z,4
2022-11-25T08:08:05.613Z,3
2022-11-25T08:13:15.962Z,4
2022-11-25T08:18:16.003Z,4
2022-11-25T08:24:15.931Z,5
2022-11-25T08:29:16.072Z,4
2022-11-25T08:35:05.701Z,5
2022-11-25T08:40:15.934Z,6
2022-11-25T08:45:15.934Z,6
2022-11-25T08:51:05.722Z,5
2022-11-25T08:56:15.966Z,4
2022-11-25T09:01:16.003Z,4
2022-11-25T09:06:16.097Z,4
2022-11-25T09:12:05.734Z,7
2022-11-25T09:17:15.773Z,5
2022-11-25T09:22:16.002Z,4
2022-11-25T09:28:05.697Z,5
2022-11-25T09:33:05.929Z,4
2022-11-25T09:38:15.833Z,4
2022-11-25T09:44:12.337Z,3
2022-11-25T09:49:15.837Z,3
2022-11-25T09:54:15.985Z,3
2022-11-25T10:00:05.806Z,3
2022-11-25T10:05:05.802Z,4
2022-11-25T10:10:15.965Z,3
2022-11-25T10:16:05.738Z,3
2022-11-25T10:21:05.677Z,3
2022-11-25T10:26:15.979Z,3
2022-11-25T10:32:05.484Z,3
2022-11-25T10:37:05.689Z,3
2022-11-25T10:42:15.794Z,2
2022-11-25T10:47:16.071Z,2
2022-11-25T10:53:05.454Z,2
2022-11-25T10:58:05.696Z,3
2022-11-25T11:03:15.879Z,3
2022-11-25T11:08:15.972Z,2
2022-11-25T11:13:16.101Z,2
2022-11-25T11:19:05.680Z,2
2022-11-25T11:24:15.962Z,2
2022-11-25T11:30:05.700Z,2
2022-11-25T11:35:05.690Z,2
2022-11-25T11:40:05.836Z,2
2022-11-25T11:45:16.050Z,7
2022-11-25T11:51:05.731Z,2
2022-11-25T11:56:33.758Z,2
2022-11-25T12:01:16.253Z,2
2022-11-25T12:07:05.870Z,2
2022-11-25T12:12:05.690Z,2
2022-11-25T12:17:16.002Z,2
2022-11-25T12:22:15.981Z,2
2022-11-25T12:27:16.022Z,2
2022-11-25T12:33:05.606Z,2
2022-11-25T12:38:15.748Z,2
2022-11-25T12:44:05.440Z,2
2022-11-25T12:49:05.491Z,2
2022-11-25T12:54:05.474Z,3
2022-11-25T12:59:05.585Z,3
2022-11-25T13:04:15.805Z,3
2022-11-25T13:09:26.108Z,3
2022-11-25T13:15:06.286Z,3
2022-11-25T13:20:15.743Z,3
2022-11-25T13:25:15.770Z,3
2022-11-25T13:30:15.825Z,3
2022-11-25T13:35:15.877Z,3
2022-11-25T13:41:05.915Z,3
2022-11-25T13:46:05.935Z,2
2022-11-25T13:51:15.986Z,2
2022-11-25T13:57:05.731Z,3
2022-11-25T14:02:15.932Z,3
2022-11-25T14:07:19.811Z,3
2022-11-25T14:13:05.765Z,3
2022-11-25T14:18:15.800Z,3
2022-11-25T14:23:20.940Z,3
2022-11-25T14:29:05.838Z,3
2022-11-25T14:34:16.481Z,3
2022-11-25T14:40:05.763Z,3
2022-11-25T14:45:15.849Z,3
2022-11-25T14:50:34.284Z,5
2022-11-25T14:55:16.158Z,5
2022-11-25T15:01:05.706Z,4
2022-11-25T15:06:05.703Z,3
2022-11-25T15:11:05.697Z,3
2022-11-25T15:16:16.097Z,3
2022-11-25T15:21:16.119Z,4
2022-11-25T15:27:05.705Z,5
2022-11-25T15:32:15.982Z,7
2022-11-25T15:37:15.978Z,5
2022-11-25T15:42:15.982Z,4
2022-11-25T15:47:16.016Z,4
2022-11-25T15:53:05.978Z,6
2022-11-25T15:58:15.974Z,5
2022-11-25T16:04:05.582Z,6
2022-11-25T16:09:05.924Z,7
2022-11-25T16:14:15.971Z,7
2022-11-25T16:20:05.487Z,10
2022-11-25T16:25:05.735Z,12
2022-11-25T16:30:05.723Z,27
2022-11-25T16:35:15.979Z,14
2022-11-25T16:41:05.478Z,10
2022-11-25T16:46:05.825Z,5
2022-11-25T16:51:15.792Z,6
2022-11-25T16:56:16.021Z,15
2022-11-25T17:02:05.747Z,6
2022-11-25T17:07:32.094Z,6
2022-11-25T17:13:05.562Z,6
2022-11-25T17:18:05.670Z,6
2022-11-25T17:23:05.762Z,6
2022-11-25T17:28:15.989Z,6
2022-11-25T17:33:16.124Z,5
2022-11-25T17:39:05.719Z,5
2022-11-25T17:44:15.990Z,5
2022-11-25T17:49:15.992Z,4
2022-11-25T17:55:05.668Z,4
2022-11-25T18:00:05.721Z,3
2022-11-25T18:05:12.132Z,3
2022-11-25T18:10:15.963Z,3
2022-11-25T18:16:05.459Z,3
2022-11-25T18:21:05.681Z,4
2022-11-25T18:26:15.973Z,3
2022-11-25T18:32:05.886Z,4
2022-11-25T18:37:15.729Z,4
2022-11-25T18:42:15.803Z,3
2022-11-25T18:47:15.874Z,3
2022-11-25T18:53:05.543Z,3
2022-11-25T18:58:15.778Z,5
2022-11-25T19:03:15.835Z,5
2022-11-25T19:09:05.488Z,6
2022-11-25T19:14:15.805Z,6
2022-11-25T19:20:05.516Z,7
2022-11-25T19:25:05.579Z,6
2022-11-25T19:30:15.919Z,5
2022-11-25T19:35:15.860Z,5
2022-11-25T19:41:05.537Z,5
2022-11-25T19:46:17.919Z,5
2022-11-25T19:51:15.796Z,5
2022-11-25T19:57:05.662Z,5
2022-11-25T20:02:15.904Z,5
2022-11-25T20:07:16.036Z,5
2022-11-25T20:12:15.971Z,5
2022-11-25T20:17:15.975Z,6
2022-11-25T20:22:15.994Z,7
2022-11-25T20:28:05.689Z,5
2022-11-25T20:33:05.695Z,5
2022-11-25T20:38:15.727Z,6
2022-11-25T20:43:16.117Z,5
2022-11-25T20:49:05.541Z,6
2022-11-25T20:54:05.714Z,6
2022-11-25T20:59:15.999Z,6
2022-11-25T21:04:16.012Z,8
2022-11-25T21:09:26.053Z,9
2022-11-25T21:15:05.690Z,9
2022-11-25T21:20:05.686Z,9
2022-11-25T21:25:15.810Z,11
2022-11-25T21:30:15.991Z,8
2022-11-25T21:35:15.976Z,6
2022-11-25T21:40:15.978Z,6
2022-11-25T21:46:05.753Z,5
2022-11-25T21:51:05.786Z,6
2022-11-25T21:56:15.978Z,11
2022-11-25T22:02:05.687Z,8
2022-11-25T22:07:05.711Z,7
2022-11-25T22:12:15.919Z,6
2022-11-25T22:17:16.019Z,8
2022-11-25T22:23:05.664Z,7
2022-11-25T22:28:15.772Z,6
2022-11-25T22:33:15.796Z,7
2022-11-25T22:39:05.675Z,6
2022-11-25T22:44:05.678Z,6
2022-11-25T22:49:15.972Z,7
2022-11-25T22:54:15.993Z,7
2022-11-25T23:00:05.688Z,8
2022-11-25T23:05:15.784Z,7
2022-11-25T23:10:15.778Z,7
2022-11-25T23:15:15.852Z,7
2022-11-25T23:20:15.993Z,8
2022-11-25T23:26:05.753Z,7
2022-11-25T23:31:15.825Z,8
2022-11-25T23:36:15.957Z,7
2022-11-25T23:41:15.975Z,7
2022-11-25T23:46:16.112Z,7
2022-11-25T23:52:08.000Z,6
2022-11-25T23:57:15.996Z,5
